createdAt,value
2019-05-16T00:00:40.140Z,8.80
2019-05-16T00:03:05.146Z,8.86
2019-05-16T00:05:30.942Z,8.86
2019-05-16T00:07:58.936Z,8.92
2019-05-16T00:10:24.493Z,8.92
2019-05-16T00:12:50.293Z,8.93
2019-05-16T00:15:18.205Z,8.97
2019-05-16T00:17:43.976Z,8.96
2019-05-16T00:20:11.775Z,8.98
2019-05-16T00:22:39.393Z,8.99
2019-05-16T00:25:05.465Z,8.98
2019-05-16T00:27:31.284Z,9.03
2019-05-16T00:29:58.121Z,9.00
2019-05-16T00:32:24.072Z,9.01
2019-05-16T00:34:49.859Z,9.02
2019-05-16T00:37:18.010Z,9.02
2019-05-16T00:39:43.359Z,9.09
2019-05-16T00:42:09.158Z,9.06
2019-05-16T00:44:34.963Z,9.14
2019-05-16T00:47:00.758Z,9.10
2019-05-16T00:49:28.061Z,9.12
2019-05-16T00:51:53.960Z,9.05
2019-05-16T00:54:19.740Z,9.09
2019-05-16T00:56:45.634Z,9.08
2019-05-16T00:59:11.431Z,9.09
2019-05-16T01:01:38.870Z,9.08
2019-05-16T01:04:04.950Z,9.12
2019-05-16T01:06:30.726Z,9.13
2019-05-16T01:08:58.000Z,9.17
2019-05-16T01:11:23.831Z,9.15
2019-05-16T01:13:49.626Z,9.13
2019-05-16T01:16:15.408Z,9.15
2019-05-16T01:18:41.211Z,9.17
2019-05-16T01:21:07.841Z,9.12
2019-05-16T01:23:33.801Z,9.15
2019-05-16T01:25:59.573Z,9.14
2019-05-16T01:28:25.381Z,9.15
2019-05-16T01:30:51.168Z,9.16
2019-05-16T01:33:19.207Z,9.20
2019-05-16T01:35:44.851Z,9.15
2019-05-16T01:38:10.638Z,9.22
2019-05-16T01:40:38.561Z,9.19
2019-05-16T01:43:04.117Z,9.23
2019-05-16T01:45:29.912Z,9.25
2019-05-16T01:47:55.699Z,9.25
2019-05-16T01:50:21.495Z,9.25
2019-05-16T01:52:48.755Z,9.24
2019-05-16T01:55:14.790Z,9.28
2019-05-16T01:57:40.581Z,9.31
2019-05-16T02:00:08.370Z,9.27
2019-05-16T02:02:34.473Z,9.27
2019-05-16T02:05:00.280Z,9.23
2019-05-16T02:07:28.268Z,9.27
2019-05-16T02:09:53.775Z,9.25
2019-05-16T02:12:19.557Z,9.25
2019-05-16T02:14:45.451Z,9.26
2019-05-16T02:17:11.417Z,9.27
2019-05-16T02:19:38.488Z,9.29
2019-05-16T02:22:04.437Z,9.29
2019-05-16T02:24:30.232Z,9.32
2019-05-16T02:26:58.294Z,9.32
2019-05-16T02:29:23.714Z,9.32
2019-05-16T02:31:51.418Z,9.33
2019-05-16T02:34:17.195Z,9.28
2019-05-16T02:36:42.998Z,9.28
2019-05-16T02:39:11.231Z,9.23
2019-05-16T02:41:36.892Z,9.26
2019-05-16T02:44:03.276Z,9.25
2019-05-16T02:46:30.834Z,9.22
2019-05-16T02:48:56.783Z,9.22
2019-05-16T02:51:22.593Z,9.12
2019-05-16T02:53:50.990Z,9.17
2019-05-16T02:56:16.121Z,9.16
2019-05-16T02:58:45.025Z,9.13
2019-05-16T03:01:10.938Z,9.16
2019-05-16T03:03:40.354Z,9.15
2019-05-16T03:06:05.317Z,9.15
2019-05-16T03:08:32.143Z,9.13
2019-05-16T03:11:00.731Z,9.15
2019-05-16T03:13:27.012Z,9.15
2019-05-16T03:15:53.302Z,9.18
2019-05-16T03:18:21.479Z,9.27
2019-05-16T03:20:47.701Z,9.25
2019-05-16T03:23:13.502Z,9.22
2019-05-16T03:25:41.893Z,9.26
2019-05-16T03:28:06.993Z,9.29
2019-05-16T03:30:34.853Z,9.22
2019-05-16T03:33:04.826Z,9.19
2019-05-16T03:35:33.338Z,9.08
2019-05-16T03:38:00.607Z,9.01
2019-05-16T03:40:25.489Z,8.96
2019-05-16T03:42:51.870Z,8.96
2019-05-16T03:45:20.922Z,8.99
2019-05-16T03:47:45.494Z,8.99
2019-05-16T03:50:11.537Z,8.98
2019-05-16T03:52:42.381Z,8.96
2019-05-16T03:55:05.678Z,8.96
2019-05-16T03:57:31.487Z,8.99
2019-05-16T03:59:57.271Z,9.00
2019-05-16T04:02:23.079Z,9.04
2019-05-16T04:04:51.123Z,9.06
2019-05-16T04:07:16.556Z,9.09
2019-05-16T04:09:42.369Z,9.10
2019-05-16T04:12:10.847Z,9.19
2019-05-16T04:14:36.592Z,9.16
2019-05-16T04:17:02.380Z,9.20
2019-05-16T04:19:31.192Z,9.26
2019-05-16T04:21:56.069Z,9.32
2019-05-16T04:24:21.958Z,9.35
2019-05-16T04:26:47.771Z,9.39
2019-05-16T04:29:13.580Z,9.36
2019-05-16T04:31:41.267Z,9.35
2019-05-16T04:34:07.057Z,9.33
2019-05-16T04:36:32.971Z,9.29
2019-05-16T04:39:01.574Z,9.24
2019-05-16T04:41:26.429Z,9.30
2019-05-16T04:43:52.226Z,9.30
2019-05-16T04:46:20.960Z,9.23
2019-05-16T04:48:45.723Z,9.33
2019-05-16T04:51:11.502Z,9.44
2019-05-16T04:53:37.297Z,9.58
2019-05-16T04:56:03.087Z,9.65
2019-05-16T04:58:31.657Z,9.69
2019-05-16T05:00:56.779Z,9.75
2019-05-16T05:03:22.560Z,9.80
2019-05-16T05:05:51.287Z,9.93
2019-05-16T05:08:16.071Z,9.98
2019-05-16T05:10:41.878Z,10.11
2019-05-16T05:13:10.775Z,10.11
2019-05-16T05:15:35.357Z,10.22
2019-05-16T05:18:01.139Z,10.38
2019-05-16T05:20:26.938Z,10.44
2019-05-16T05:22:52.735Z,10.57
2019-05-16T05:25:20.426Z,10.66
2019-05-16T05:27:46.207Z,10.65
2019-05-16T05:30:12.216Z,10.68
2019-05-16T05:32:38.009Z,10.75
2019-05-16T05:35:06.885Z,10.79
2019-05-16T05:37:32.677Z,10.91
2019-05-16T05:39:59.918Z,10.81
2019-05-16T05:42:25.882Z,10.72
2019-05-16T05:44:51.682Z,10.72
2019-05-16T05:47:19.854Z,10.85
2019-05-16T05:49:45.207Z,11.07
2019-05-16T05:52:12.349Z,11.09
2019-05-16T05:54:40.669Z,11.19
2019-05-16T05:57:06.255Z,11.28
2019-05-16T05:59:32.051Z,11.44
2019-05-16T06:02:00.544Z,11.73
2019-05-16T06:04:25.526Z,11.80
2019-05-16T06:06:51.340Z,11.75
2019-05-16T06:09:26.157Z,11.81
2019-05-16T06:11:44.855Z,11.74
2019-05-16T06:14:10.640Z,11.67
2019-05-16T06:16:36.448Z,11.88
2019-05-16T06:19:02.233Z,11.86
2019-05-16T06:21:33.085Z,11.95
2019-05-16T06:23:55.739Z,12.15
2019-05-16T06:26:21.543Z,12.31
2019-05-16T06:28:47.333Z,12.58
2019-05-16T06:31:14.433Z,12.65
2019-05-16T06:33:41.102Z,12.51
2019-05-16T06:36:07.031Z,12.47
2019-05-16T06:38:32.817Z,12.41
2019-05-16T06:41:00.454Z,12.42
2019-05-16T06:43:26.318Z,12.39
2019-05-16T06:45:52.113Z,12.45
2019-05-16T06:48:17.898Z,12.38
2019-05-16T06:50:44.113Z,12.23
2019-05-16T06:53:10.966Z,12.03
2019-05-16T06:55:36.841Z,12.06
2019-05-16T06:58:02.933Z,11.99
2019-05-16T07:00:30.168Z,11.92
2019-05-16T07:02:56.120Z,11.92
2019-05-16T07:05:22.000Z,11.74
2019-05-16T07:07:50.878Z,11.63
2019-05-16T07:10:16.589Z,11.50
2019-05-16T07:12:42.501Z,11.40
2019-05-16T07:15:12.186Z,11.43
2019-05-16T07:17:36.598Z,11.44
2019-05-16T07:20:05.982Z,11.48
2019-05-16T07:22:31.817Z,11.54
2019-05-16T07:24:59.790Z,11.79
2019-05-16T07:27:25.309Z,11.85
2019-05-16T07:29:51.093Z,11.87
2019-05-16T07:32:16.897Z,11.84
2019-05-16T07:34:42.731Z,11.80
2019-05-16T07:37:10.679Z,11.89
2019-05-16T07:39:38.684Z,11.94
2019-05-16T07:42:04.650Z,11.94
2019-05-16T07:44:31.136Z,11.95
2019-05-16T07:46:57.033Z,11.80
2019-05-16T07:49:22.872Z,11.88
2019-05-16T07:51:49.854Z,11.84
2019-05-16T07:54:17.331Z,11.87
2019-05-16T07:56:43.168Z,11.91
2019-05-16T07:59:10.338Z,12.09
2019-05-16T08:01:36.260Z,12.51
2019-05-16T08:04:02.112Z,12.69
2019-05-16T08:06:27.890Z,12.71
2019-05-16T08:08:53.694Z,12.87
2019-05-16T08:11:20.545Z,13.25
2019-05-16T08:13:47.168Z,13.24
2019-05-16T08:16:12.958Z,13.34
2019-05-16T08:18:44.716Z,13.37
2019-05-16T08:21:06.436Z,13.00
2019-05-16T08:23:32.234Z,12.77
2019-05-16T08:26:00.910Z,12.79
2019-05-16T08:28:25.719Z,12.79
2019-05-16T08:30:53.025Z,12.86
2019-05-16T08:33:21.898Z,12.85
2019-05-16T08:35:46.799Z,12.62
2019-05-16T08:38:13.595Z,12.53
2019-05-16T08:41:01.261Z,12.39
2019-05-16T08:43:07.182Z,12.08
2019-05-16T08:45:33.071Z,11.99
2019-05-16T08:48:00.317Z,11.93
2019-05-16T08:50:26.173Z,12.04
2019-05-16T08:52:53.075Z,12.09
2019-05-16T08:55:21.759Z,12.10
2019-05-16T08:57:47.102Z,12.02
2019-05-16T09:00:15.430Z,12.03
2019-05-16T09:05:13.039Z,11.96
2019-05-16T09:07:36.819Z,11.92
2019-05-16T09:10:03.621Z,11.93
2019-05-16T09:10:15.893Z,11.87
2019-05-16T09:12:29.445Z,12.12
2019-05-16T09:14:59.083Z,12.05
2019-05-16T09:17:22.925Z,12.20
2019-05-16T09:19:48.739Z,12.09
2019-05-16T09:22:17.532Z,12.11
2019-05-16T09:24:42.212Z,12.00
2019-05-16T09:27:12.407Z,12.12
2019-05-16T09:29:36.673Z,12.31
2019-05-16T09:32:15.297Z,12.30
2019-05-16T09:34:30.203Z,12.22
2019-05-16T09:37:00.458Z,11.81
2019-05-16T09:39:23.694Z,11.82
2019-05-16T09:41:58.345Z,11.83
2019-05-16T09:44:18.333Z,11.84
2019-05-16T09:46:47.039Z,11.75
2019-05-16T09:49:19.466Z,11.68
2019-05-16T09:51:39.866Z,11.60
2019-05-16T09:54:07.217Z,11.72
2019-05-16T09:56:33.043Z,11.95
2019-05-16T09:58:58.817Z,11.91
2019-05-16T10:01:27.411Z,12.12
2019-05-16T10:03:52.373Z,11.99
2019-05-16T10:06:19.127Z,11.81
2019-05-16T10:08:46.389Z,11.63
2019-05-16T10:11:12.320Z,11.60
2019-05-16T10:13:38.204Z,11.58
2019-05-16T10:16:03.993Z,11.22
2019-05-16T10:18:29.774Z,10.99
2019-05-16T10:20:59.055Z,11.05
2019-05-16T10:23:23.255Z,11.18
2019-05-16T10:25:49.157Z,11.26
2019-05-16T10:28:17.333Z,11.29
2019-05-16T10:30:42.648Z,11.35
2019-05-16T10:33:08.426Z,11.63
2019-05-16T10:35:36.980Z,11.59
2019-05-16T10:38:01.909Z,11.62
2019-05-16T10:40:27.716Z,11.40
2019-05-16T10:42:53.510Z,11.34
2019-05-16T10:45:19.314Z,11.17
2019-05-16T10:47:47.839Z,11.15
2019-05-16T10:50:13.902Z,11.13
2019-05-16T10:52:39.696Z,11.05
2019-05-16T10:55:08.198Z,11.04
2019-05-16T10:57:33.891Z,10.76
2019-05-16T11:00:08.933Z,10.66
2019-05-16T11:02:27.706Z,10.46
2019-05-16T11:05:02.778Z,10.34
2019-05-16T11:07:21.276Z,10.29
2019-05-16T11:09:55.721Z,10.26
2019-05-16T11:12:17.358Z,10.16
2019-05-16T11:14:42.468Z,10.05
2019-05-16T11:17:13.377Z,9.99
2019-05-16T11:19:37.240Z,9.83
2019-05-16T11:22:03.166Z,9.87
2019-05-16T11:24:29.383Z,9.87
2019-05-16T11:26:56.751Z,9.91
2019-05-16T11:29:22.653Z,9.92
2019-05-16T11:31:48.459Z,9.93
2019-05-16T11:34:14.230Z,9.98
2019-05-16T11:36:40.021Z,10.11
2019-05-16T11:39:08.584Z,10.31
2019-05-16T11:41:33.704Z,10.47
2019-05-16T11:43:59.501Z,10.61
2019-05-16T11:46:27.898Z,10.67
2019-05-16T11:48:52.976Z,10.84
2019-05-16T11:51:20.708Z,10.98
2019-05-16T11:53:47.687Z,11.29
2019-05-16T11:56:13.600Z,11.85
2019-05-16T11:58:39.395Z,11.85
2019-05-16T12:01:07.582Z,12.12
2019-05-16T12:03:32.970Z,12.66
2019-05-16T12:05:58.858Z,13.49
2019-05-16T12:08:26.485Z,13.67
2019-05-16T12:10:52.356Z,13.42
2019-05-16T12:13:28.229Z,13.43
2019-05-16T12:15:45.834Z,13.38
2019-05-16T12:18:11.614Z,13.68
2019-05-16T12:20:37.403Z,14.24
2019-05-16T12:23:03.196Z,14.94
2019-05-16T12:25:28.987Z,14.96
2019-05-16T12:27:56.879Z,14.82
2019-05-16T12:30:22.479Z,14.32
2019-05-16T12:32:48.265Z,14.25
2019-05-16T12:35:14.160Z,14.17
2019-05-16T12:37:39.948Z,14.30
2019-05-16T12:40:05.845Z,14.62
2019-05-16T12:42:31.633Z,15.03
2019-05-16T12:44:57.423Z,15.68
2019-05-16T12:47:23.210Z,15.86
2019-05-16T12:49:49.004Z,15.85
2019-05-16T12:52:14.787Z,16.27
2019-05-16T12:54:40.588Z,16.11
2019-05-16T12:57:06.361Z,16.01
2019-05-16T12:59:32.157Z,15.91
2019-05-16T13:01:57.948Z,15.40
2019-05-16T13:04:23.730Z,15.32
2019-05-16T13:06:49.513Z,15.38
2019-05-16T13:09:15.406Z,15.44
2019-05-16T13:11:41.212Z,15.56
2019-05-16T13:14:11.053Z,15.70
2019-05-16T13:16:34.710Z,15.73
2019-05-16T13:19:00.499Z,15.56
2019-05-16T13:21:27.570Z,15.29
2019-05-16T13:23:53.477Z,15.12
2019-05-16T13:26:19.273Z,15.01
2019-05-16T13:28:47.455Z,14.87
2019-05-16T13:31:12.790Z,14.87
2019-05-16T13:33:38.581Z,14.72
2019-05-16T13:36:07.198Z,14.85
2019-05-16T13:38:32.164Z,14.84
2019-05-16T13:40:57.958Z,14.80
2019-05-16T13:43:23.748Z,14.58
2019-05-16T13:45:49.553Z,14.34
2019-05-16T13:48:17.177Z,14.14
2019-05-16T13:50:43.012Z,13.88
2019-05-16T13:53:08.802Z,13.85
2019-05-16T13:55:34.593Z,13.71
2019-05-16T13:58:00.439Z,13.61
2019-05-16T14:00:27.964Z,13.40
2019-05-16T14:02:53.921Z,13.25
2019-05-16T14:05:19.909Z,12.92
2019-05-16T14:07:48.067Z,12.98
2019-05-16T14:10:13.428Z,12.86
2019-05-16T14:12:39.230Z,12.91
2019-05-16T14:15:07.891Z,12.68
2019-05-16T14:17:33.624Z,12.62
2019-05-16T14:19:59.426Z,12.60
2019-05-16T14:22:27.656Z,12.48
2019-05-16T14:24:52.916Z,12.57
2019-05-16T14:27:18.719Z,12.56
2019-05-16T14:29:44.501Z,12.64
2019-05-16T14:32:10.919Z,12.70
2019-05-16T14:34:38.503Z,12.82
2019-05-16T14:37:07.015Z,12.92
2019-05-16T14:39:32.241Z,13.11
2019-05-16T14:41:58.004Z,13.26
2019-05-16T14:44:23.795Z,13.44
2019-05-16T14:46:49.957Z,13.58
2019-05-16T14:49:17.200Z,13.66
2019-05-16T14:51:43.114Z,13.74
2019-05-16T14:54:08.939Z,13.95
2019-05-16T14:56:34.712Z,14.17
2019-05-16T14:59:00.500Z,14.33
2019-05-16T15:01:26.685Z,14.35
2019-05-16T15:03:52.588Z,14.29
2019-05-16T15:06:18.524Z,14.34
2019-05-16T15:08:47.187Z,14.23
2019-05-16T15:11:14.537Z,14.07
2019-05-16T15:13:39.932Z,14.15
2019-05-16T15:16:07.683Z,14.06
2019-05-16T15:18:33.419Z,14.10
2019-05-16T15:20:59.650Z,14.15
2019-05-16T15:23:28.336Z,14.07
2019-05-16T15:25:53.139Z,14.15
2019-05-16T15:28:18.937Z,14.06
2019-05-16T15:30:46.919Z,14.21
2019-05-16T15:33:12.535Z,14.25
2019-05-16T15:35:38.459Z,14.32
2019-05-16T15:38:07.493Z,14.26
2019-05-16T15:40:32.278Z,14.17
2019-05-16T15:42:59.224Z,14.08
2019-05-16T15:45:42.644Z,14.06
2019-05-16T15:48:08.292Z,14.13
2019-05-16T15:50:33.275Z,14.08
2019-05-16T15:52:59.348Z,14.04
2019-05-16T15:55:27.106Z,14.03
2019-05-16T15:57:53.300Z,14.03
2019-05-16T16:00:27.147Z,14.02
2019-05-16T16:02:53.983Z,13.99
2019-05-16T16:05:19.861Z,13.87
2019-05-16T16:07:47.991Z,13.86
2019-05-16T16:10:13.565Z,13.91
2019-05-16T16:12:39.346Z,13.85
2019-05-16T16:15:07.629Z,13.80
2019-05-16T16:17:37.917Z,13.81
2019-05-16T16:20:09.905Z,13.78
2019-05-16T16:22:33.974Z,13.72
2019-05-16T16:24:59.748Z,13.69
2019-05-16T16:27:27.498Z,13.76
2019-05-16T16:29:53.238Z,13.76
2019-05-16T16:32:19.032Z,13.78
2019-05-16T16:34:44.834Z,13.86
2019-05-16T16:37:10.622Z,13.79
2019-05-16T16:39:37.814Z,13.91
2019-05-16T16:42:03.717Z,13.88
2019-05-16T16:44:29.500Z,13.86
2019-05-16T16:46:57.324Z,13.84
2019-05-16T16:49:23.288Z,13.70
2019-05-16T16:51:49.103Z,13.73
2019-05-16T16:54:17.020Z,13.74
2019-05-16T16:56:42.898Z,13.72
2019-05-16T16:59:08.825Z,13.54
2019-05-16T17:01:37.181Z,13.37
2019-05-16T17:04:02.293Z,13.33
2019-05-16T17:06:28.101Z,13.35
2019-05-16T17:08:56.633Z,13.29
2019-05-16T17:11:21.606Z,13.22
2019-05-16T17:13:47.411Z,13.17
2019-05-16T17:16:23.157Z,13.24
2019-05-16T17:18:40.853Z,13.29
2019-05-16T17:21:07.884Z,13.29
2019-05-16T17:23:33.935Z,13.37
2019-05-16T17:25:59.724Z,13.23
2019-05-16T17:28:25.525Z,13.23
2019-05-16T17:30:51.723Z,13.20
2019-05-16T17:33:18.436Z,13.14
2019-05-16T17:35:48.300Z,13.18
2019-05-16T17:38:11.989Z,13.23
2019-05-16T17:40:38.486Z,13.04
2019-05-16T17:43:04.376Z,12.85
2019-05-16T17:45:30.183Z,12.84
2019-05-16T17:47:57.168Z,12.73
2019-05-16T17:50:23.233Z,12.64
2019-05-16T17:52:49.007Z,12.52
2019-05-16T17:55:17.182Z,12.51
2019-05-16T17:57:42.795Z,12.51
2019-05-16T18:00:13.096Z,12.46
2019-05-16T18:02:39.839Z,12.35
2019-05-16T18:05:07.423Z,12.41
2019-05-16T18:07:33.334Z,12.32
2019-05-16T18:09:59.141Z,12.19
2019-05-16T18:12:27.384Z,12.19
2019-05-16T18:14:52.637Z,12.17
2019-05-16T18:17:18.437Z,12.19
2019-05-16T18:19:46.477Z,12.22
2019-05-16T18:22:11.911Z,12.27
2019-05-16T18:24:37.699Z,12.19
2019-05-16T18:27:03.504Z,12.12
2019-05-16T18:29:29.298Z,12.12
2019-05-16T18:31:55.091Z,12.07
2019-05-16T18:34:20.874Z,12.00
2019-05-16T18:36:46.852Z,12.05
2019-05-16T18:39:12.661Z,12.05
2019-05-16T18:41:38.460Z,12.04
2019-05-16T18:44:04.441Z,12.00
2019-05-16T18:46:30.255Z,11.98
2019-05-16T18:48:56.528Z,11.89
2019-05-16T18:51:22.352Z,11.92
2019-05-16T18:53:48.143Z,11.89
2019-05-16T18:56:13.960Z,11.92
2019-05-16T18:58:39.736Z,11.87
2019-05-16T19:01:06.667Z,11.88
2019-05-16T19:03:32.628Z,11.91
2019-05-16T19:05:58.419Z,11.85
2019-05-16T19:08:24.214Z,11.83
2019-05-16T19:10:50.013Z,11.78
2019-05-16T19:13:16.833Z,11.77
2019-05-16T19:15:42.705Z,11.69
2019-05-16T19:18:08.520Z,11.61
2019-05-16T19:20:34.303Z,11.03
2019-05-16T19:23:00.319Z,11.44
2019-05-16T19:25:26.960Z,11.17
2019-05-16T19:27:52.809Z,11.17
2019-05-16T19:30:19.091Z,10.90
2019-05-16T19:32:46.893Z,10.84
2019-05-16T19:35:12.991Z,10.75
2019-05-16T19:37:40.741Z,10.64
2019-05-16T19:40:06.798Z,10.58
2019-05-16T19:42:32.619Z,10.53
2019-05-16T19:44:58.405Z,10.53
2019-05-16T19:47:36.778Z,10.48
2019-05-16T19:49:51.922Z,10.48
2019-05-16T19:52:17.706Z,10.51
2019-05-16T19:54:43.517Z,10.45
2019-05-16T19:57:09.292Z,10.53
2019-05-16T19:59:36.709Z,10.54
2019-05-16T20:02:02.617Z,10.54
2019-05-16T20:04:28.610Z,10.54
2019-05-16T20:06:56.570Z,10.52
2019-05-16T20:09:22.544Z,10.48
2019-05-16T20:11:48.900Z,10.51
2019-05-16T20:14:16.883Z,10.57
2019-05-16T20:16:43.154Z,10.55
2019-05-16T20:19:09.084Z,10.58
2019-05-16T20:21:36.979Z,10.62
2019-05-16T20:24:02.676Z,10.64
2019-05-16T20:26:28.467Z,10.72
2019-05-16T20:28:56.859Z,10.68
2019-05-16T20:31:21.945Z,10.69
2019-05-16T20:33:47.745Z,10.74
2019-05-16T20:36:13.740Z,10.73
2019-05-16T20:38:39.544Z,10.77
2019-05-16T20:41:07.727Z,10.74
2019-05-16T20:43:33.021Z,10.77
2019-05-16T20:46:00.517Z,10.74
2019-05-16T20:48:26.608Z,10.74
2019-05-16T20:50:52.405Z,10.70
2019-05-16T20:53:18.206Z,10.72
2019-05-16T20:55:46.441Z,10.77
2019-05-16T20:58:11.702Z,10.76
2019-05-16T21:00:37.995Z,10.78
2019-05-16T21:03:03.897Z,10.77
2019-05-16T21:05:29.703Z,10.77
2019-05-16T21:07:57.041Z,10.84
2019-05-16T21:10:22.906Z,10.83
2019-05-16T21:12:48.685Z,10.86
2019-05-16T21:15:17.003Z,10.87
2019-05-16T21:17:42.398Z,10.85
2019-05-16T21:20:08.405Z,10.85
2019-05-16T21:22:36.800Z,10.88
2019-05-16T21:25:02.386Z,10.90
2019-05-16T21:27:28.260Z,10.92
2019-05-16T21:29:54.069Z,10.89
2019-05-16T21:32:19.857Z,10.94
2019-05-16T21:34:46.928Z,10.95
2019-05-16T21:37:17.141Z,10.92
2019-05-16T21:39:40.450Z,10.86
2019-05-16T21:42:07.490Z,10.89
2019-05-16T21:44:33.761Z,10.87
2019-05-16T21:46:59.713Z,10.83
2019-05-16T21:49:27.603Z,10.70
2019-05-16T21:51:54.253Z,10.68
2019-05-16T21:54:20.469Z,10.64
2019-05-16T21:56:46.821Z,10.65
2019-05-16T21:59:12.756Z,10.67
2019-05-16T22:01:40.910Z,10.63
2019-05-16T22:04:07.353Z,10.70
2019-05-16T22:06:33.338Z,10.66
2019-05-16T22:08:59.225Z,10.72
2019-05-16T22:11:26.392Z,10.67
2019-05-16T22:13:52.320Z,10.67
2019-05-16T22:16:18.119Z,10.78
2019-05-16T22:18:44.112Z,10.85
2019-05-16T22:21:09.915Z,10.81
2019-05-16T22:23:37.392Z,10.77
2019-05-16T22:26:03.282Z,10.82
2019-05-16T22:28:30.135Z,10.83
2019-05-16T22:30:58.545Z,10.82
2019-05-16T22:33:26.676Z,10.83
2019-05-16T22:35:52.242Z,10.85
2019-05-16T22:38:18.234Z,10.80
2019-05-16T22:40:44.023Z,10.85
2019-05-16T22:43:10.255Z,10.92
2019-05-16T22:45:37.426Z,10.90
2019-05-16T22:48:03.409Z,10.92
2019-05-16T22:50:29.188Z,10.88
2019-05-16T22:52:56.933Z,10.89
2019-05-16T22:55:22.681Z,10.90
2019-05-16T22:57:48.475Z,10.90
2019-05-16T23:00:21.004Z,10.91
2019-05-16T23:02:47.684Z,10.89
2019-05-16T23:05:13.676Z,10.84
2019-05-16T23:07:39.589Z,10.82
2019-05-16T23:10:07.250Z,10.89
2019-05-16T23:12:33.192Z,10.80
2019-05-16T23:14:58.983Z,10.79
2019-05-16T23:17:26.696Z,10.72
2019-05-16T23:19:52.630Z,10.73
2019-05-16T23:22:18.429Z,10.71
2019-05-16T23:24:46.237Z,10.69
2019-05-16T23:27:11.906Z,10.64
2019-05-16T23:29:37.706Z,10.58
2019-05-16T23:32:03.507Z,10.49
2019-05-16T23:34:29.297Z,10.49
2019-05-16T23:36:57.016Z,10.40
2019-05-16T23:39:22.769Z,10.38
2019-05-16T23:41:48.547Z,10.39
2019-05-16T23:44:16.523Z,10.32
2019-05-16T23:46:42.035Z,10.35
2019-05-16T23:49:07.831Z,10.32
2019-05-16T23:51:33.621Z,10.21
2019-05-16T23:53:59.423Z,10.08
2019-05-16T23:56:27.287Z,10.00
2019-05-16T23:58:52.923Z,10.03
